Getzville 2E NY

43° 01' 25"N, 78° 44' 55"W, Elevation 589 ft.
Eastern Time

Hourly observations for the last 72 hours

Date Time Temperature (°F) Humi-
dity

(%)
Wind
(mph)
Pressure Rain (in) Sun
(W/m2)
ET
(in)
Air Dew 6 Hour 1 Hr 3 Hr 6 Hr Day
Alt
(in)
Sea
Level

(mb)
Max Min
30 02:00 51.6 49.6 59.9 51.6 93 WNW 2 G 7 29.64 1003.9 0.12 0.38 0.87 0.25 0 0.000
30 01:00 53.0 51.0 93 W 1 G 3 29.67 1004.8 0.16 0.13 0 0.000
30 00:00 54.1 51.8 92 W 0 G 3 29.70 1005.9 0.10 0.65 0 0.054
29 23:00 55.6 53.3 92 Calm 29.72 1006.6 0.33 0.49 0.55 0 0.054
29 22:00 57.7 54.5 89 Calm 29.75 1007.4 0.16 0.22 0 0.054
29 21:00 59.0 53.5 82 Calm 29.75 1007.4 0.06 0 0.053
29 20:00 59.9 53.4 64.1 59.8 79 WSW 0 G 2 29.77 1008.1 0.06 0 0.052
29 19:00 61.0 53.0 75 WSW 0 G 3 29.77 1008.3 0.06 0 0.052
29 18:00 62.1 52.6 71 WNW 1 G 7 29.78 1008.4 0.06 44 0.050
29 17:00 63.8 53.4 69 W 1 G 6 29.78 1008.4 0.06 118 0.045
29 16:00 63.6 52.5 67 WNW 2 G 5 29.78 1008.4 0.06 262 0.040
29 15:00 63.1 51.6 66 WNW 3 G 8 29.78 1008.6 0.06 165 0.036
29 14:00 63.6 52.0 63.6 54.5 66 SW 1 G 8 29.80 1009.2 0.06 264 0.029
29 13:00 62.6 51.5 67 WNW 5 G 9 29.81 1009.6 0.06 248 0.022
29 12:00 60.8 51.7 72 W 3 G 8 29.82 1009.8 0.06 220 0.015
29 11:00 60.6 54.4 80 W 2 G 12 29.83 1010.1 0.06 295 0.009
29 10:00 58.4 54.5 87 WNW 5 G 9 29.83 1010.1 0.06 248 0.005
29 09:00 56.2 53.9 92 W 1 G 4 29.81 1009.5 0.06 105 0.004
29 08:00 54.5 52.2 63.2 54.3 92 Calm 29.80 1009.2 0.06 0.06 21 0.004
29 07:00 54.6 52.0 91 WNW 0 G 1 29.78 1008.5 0.06 0 0.004
29 06:00 55.6 53.3 92 WNW 2 G 6 29.77 1008.3 0.06 0 0.004
29 05:00 56.3 54.0 92 WNW 2 G 8 29.75 1007.4 0.01 0.06 0.06 0 0.004
29 04:00 57.3 55.0 92 WNW 5 G 10 29.73 1006.7 0.01 0.05 0 0.004
29 03:00 58.6 55.7 90 WNW 3 G 9 29.71 1006.3 0.04 0.04 0 0.003
29 02:00 63.2 58.3 74.8 63.2 84 WNW 5 G 14 29.68 1005.1 0.00 0 0.002
29 01:00 67.7 61.0 79 WNW 10 G 23 29.64 1003.8 0.00 0 0.000
29 00:00 74.3 62.2 66 SSE 2 G 6 29.58 1001.9 0.00 0 0.079
28 23:00 73.7 62.1 67 SSW 3 G 6 29.59 1002.2 0.00 0 0.078
28 22:00 68.3 60.5 76 SE 0 G 1 29.61 1002.6 0.00 0 0.077
28 21:00 66.6 59.9 79 Calm 29.62 1002.9 0.00 0 0.076
28 20:00 67.9 61.5 80.7 67.8 80 Calm 29.61 1002.8 0.00 0 0.076
28 19:00 72.9 62.6 70 Calm 29.62 1003.0 0.00 0 0.075
28 18:00 77.1 63.1 62 E 0 G 4 29.63 1003.5 0.00 39 0.073
28 17:00 78.7 63.7 60 SE 1 G 4 29.65 1003.9 0.00 84 0.067
28 16:00 78.2 64.1 62 WSW 2 G 6 29.66 1004.4 0.00 84 0.062
28 15:00 78.8 63.8 60 SSW 2 G 10 29.67 1004.7 0.00 236 0.049
28 14:00 80.4 65.7 80.4 58.3 61 NW 4 G 12 29.68 1005.1 0.00 891 0.029
28 13:00 73.8 64.2 72 S 1 G 9 29.71 1006.1 0.00 250 0.022
28 12:00 78.0 65.7 66 WSW 2 G 7 29.71 1006.1 0.00 853 0.007
28 11:00 73.6 64.4 73 SSW 3 G 12 29.72 1006.3 0.00 111 0.003
28 10:00 68.4 63.0 83 W 3 G 7 29.73 1006.7 0.00 72 0.001
28 09:00 62.0 60.3 94 SW 0 G 3 29.73 1006.7 0.00 49 0.000
28 08:00 58.4 56.7 59.9 57.6 94 Calm 29.73 1006.8 0.00 26 0.000
28 07:00 58.0 56.3 94 Calm 29.74 1007.2 0.00 0 0.000
28 06:00 57.9 55.9 93 Calm 29.74 1007.0 0.00 0 0.000
28 05:00 58.7 56.7 93 SW 0 G 1 29.74 1007.0 0.00 0 0.000
28 04:00 59.0 57.0 93 Calm 29.74 1007.2 0.00 0 0.000
28 03:00 59.0 57.0 93 Calm 29.75 1007.3 0.00 0 0.000
28 02:00 59.9 57.6 71.2 59.9 92 Calm 29.75 1007.6 0.00 0 0.000
28 01:00 60.6 58.3 92 Calm 29.76 1007.9 0.00 0 0.000
28 00:00 61.5 58.9 91 Calm 29.77 1008.3 0.00 0 0.111
27 23:00 62.8 59.8 90 Calm 29.79 1008.7 0.00 0 0.111
27 22:00 64.5 60.5 87 Calm 29.79 1008.9 0.00 0 0.110
27 21:00 67.5 61.8 82 Calm 29.79 1008.9 0.00 0 0.109
27 20:00 71.2 62.9 83.2 71.2 75 SW 0 G 3 29.78 1008.6 0.00 0 0.109
27 19:00 74.7 63.0 67 WSW 1 G 3 29.76 1007.9 0.00 0 0.108
27 18:00 78.3 63.8 61 WSW 1 G 6 29.75 1007.4 0.00 46 0.105
27 17:00 80.8 63.7 56 SW 3 G 8 29.73 1006.8 0.00 90 0.098
27 16:00 80.9 63.8 56 WSW 4 G 9 29.73 1006.9 0.00 107 0.093
27 15:00 81.2 63.0 54 SSW 5 G 13 29.74 1007.1 0.00 113 0.078
27 14:00 82.3 64.5 82.3 66.8 55 W 4 G 20 29.75 1007.4 0.00 786 0.056
27 13:00 78.7 64.1 61 SSW 4 G 19 29.76 1007.8 0.00 817 0.034
27 12:00 77.0 65.2 67 W 2 G 14 29.77 1008.2 0.00 780 0.016
27 11:00 73.2 63.2 71 SW 5 G 13 29.78 1008.5 0.00 109 0.012
27 10:00 70.7 62.8 76 SW 5 G 12 29.80 1009.1 0.00 97 0.009
27 09:00 68.5 62.1 80 SSW 2 G 7 29.81 1009.4 0.00 91 0.007
27 08:00 66.8 61.1 66.8 65.2 82 SW 3 G 15 29.81 1009.4 0.00 56 0.006
27 07:00 65.6 60.3 83 SSW 3 G 8 29.81 1009.4 0.00 0 0.006
27 06:00 66.1 60.1 81 SSW 2 G 9 29.80 1009.3 0.00 0 0.005
27 05:00 66.0 60.0 81 SW 1 G 5 29.81 1009.6 0.00 0 0.004
27 04:00 66.3 60.3 81 S 2 G 7 29.82 1009.8 0.00 0 0.003
27 03:00 65.2 59.6 82 SW 1 G 3 29.83 1010.1 0.00 0 0.002

Data generated by WxSolution Version 1.9.1.5, Build 2018.05.20.